Time,TemperatureF,DewpointF,PressureIn,WindDirection,WindDirectionDegrees,WindSpeedMPH,WindSpeedGustMPH,Humidity,HourlyPrecipIn,Conditions,Clouds,dailyrainin,SoftwareType,DateUTC
2013-08-16 00:00:00,53.5,51.2,30.08,West,261,0.0,0.0,92,0.00,,,0.00,Wunderground v.1.15,2013-08-16 05:00:00,
2013-08-16 00:05:00,53.4,51.1,30.08,West,261,0.0,0.0,92,0.00,,,0.00,Wunderground v.1.15,2013-08-16 05:05:00,
2013-08-16 00:11:00,53.3,51.0,30.09,West,261,0.0,0.0,92,0.00,,,0.00,Wunderground v.1.15,2013-08-16 05:11:00,
2013-08-16 00:19:00,53.1,50.8,30.09,West,261,0.0,0.0,92,0.00,,,0.00,Wunderground v.1.15,2013-08-16 05:19:00,
2013-08-16 00:25:00,53.0,50.7,30.09,West,261,0.0,0.0,92,0.00,,,0.00,Wunderground v.1.15,2013-08-16 05:25:00,
2013-08-16 00:30:00,52.9,50.6,30.09,West,261,0.0,0.0,92,0.00,,,0.00,Wunderground v.1.15,2013-08-16 05:30:00,
2013-08-16 00:36:00,52.8,50.5,30.09,West,261,0.0,0.0,92,0.00,,,0.00,Wunderground v.1.15,2013-08-16 05:36:00,
2013-08-16 00:42:00,52.8,50.5,30.09,West,261,0.0,0.0,92,0.00,,,0.00,Wunderground v.1.15,2013-08-16 05:42:00,
2013-08-16 00:48:00,52.7,50.7,30.09,West,261,0.0,0.0,93,0.00,,,0.00,Wunderground v.1.15,2013-08-16 05:48:00,
2013-08-16 00:54:00,52.7,50.4,30.09,West,261,0.0,0.0,92,0.00,,,0.00,Wunderground v.1.15,2013-08-16 05:54:00,
2013-08-16 01:00:00,52.4,50.1,30.09,West,261,0.0,0.0,92,0.00,,,0.00,Wunderground v.1.15,2013-08-16 06:00:00,
2013-08-16 01:06:00,52.1,49.8,30.09,West,261,0.0,0.0,92,0.00,,,0.00,Wunderground v.1.15,2013-08-16 06:06:00,
2013-08-16 01:12:00,51.7,49.2,30.09,West,261,0.0,0.0,91,0.00,,,0.00,Wunderground v.1.15,2013-08-16 06:12:00,
2013-08-16 01:17:00,51.1,48.6,30.09,West,261,0.0,0.0,91,0.00,,,0.00,Wunderground v.1.15,2013-08-16 06:17:00,
2013-08-16 01:23:00,50.6,48.1,30.09,NNW,340,0.0,0.0,91,0.00,,,0.00,Wunderground v.1.15,2013-08-16 06:23:00,
2013-08-16 01:29:00,50.3,48.1,30.09,North,5,0.0,0.0,92,0.00,,,0.00,Wunderground v.1.15,2013-08-16 06:29:00,
2013-08-16 01:35:00,50.3,48.4,30.09,North,5,0.0,0.0,93,0.00,,,0.00,Wunderground v.1.15,2013-08-16 06:35:00,
2013-08-16 01:41:00,50.4,48.5,30.09,North,5,0.0,0.0,93,0.00,,,0.00,Wunderground v.1.15,2013-08-16 06:41:00,
2013-08-16 01:47:00,50.5,48.8,30.09,North,5,0.0,0.0,94,0.00,,,0.00,Wunderground v.1.15,2013-08-16 06:47:00,
2013-08-16 01:53:00,50.9,49.2,30.09,North,5,0.0,0.0,94,0.00,,,0.00,Wunderground v.1.15,2013-08-16 06:53:00,
2013-08-16 01:59:00,50.8,49.1,30.09,North,5,0.0,0.0,94,0.00,,,0.00,Wunderground v.1.15,2013-08-16 06:59:00,
2013-08-16 02:05:00,50.6,48.7,30.09,North,5,0.0,0.0,93,0.00,,,0.00,Wunderground v.1.15,2013-08-16 07:05:00,
2013-08-16 02:11:00,50.3,48.4,30.09,North,5,0.0,0.0,93,0.00,,,0.00,Wunderground v.1.15,2013-08-16 07:11:00,
2013-08-16 02:16:00,50.2,48.5,30.09,North,5,0.0,0.0,94,0.00,,,0.00,Wunderground v.1.15,2013-08-16 07:16:00,
2013-08-16 02:22:00,51.0,49.6,30.09,North,5,0.0,0.0,95,0.00,,,0.00,Wunderground v.1.15,2013-08-16 07:22:00,
2013-08-16 02:28:00,51.3,49.9,30.09,North,5,0.0,0.0,95,0.00,,,0.00,Wunderground v.1.15,2013-08-16 07:28:00,
2013-08-16 02:34:00,51.6,50.2,30.09,North,5,0.0,0.0,95,0.00,,,0.00,Wunderground v.1.15,2013-08-16 07:34:00,
2013-08-16 02:40:00,51.3,49.3,30.09,North,5,0.0,0.0,93,0.00,,,0.00,Wunderground v.1.15,2013-08-16 07:40:00,
2013-08-16 02:46:00,50.7,48.7,30.09,North,5,0.0,0.0,93,0.00,,,0.00,Wunderground v.1.15,2013-08-16 07:46:00,
2013-08-16 02:51:00,50.7,49.0,30.09,North,5,0.0,0.0,94,0.00,,,0.00,Wunderground v.1.15,2013-08-16 07:51:00,
2013-08-16 02:57:00,50.7,49.0,30.08,North,5,0.0,0.0,94,0.00,,,0.00,Wunderground v.1.15,2013-08-16 07:57:00,
2013-08-16 03:03:00,50.5,48.6,30.09,North,5,0.0,0.0,93,0.00,,,0.00,Wunderground v.1.15,2013-08-16 08:03:00,
2013-08-16 03:09:00,50.1,48.2,30.09,North,5,0.0,0.0,93,0.00,,,0.00,Wunderground v.1.15,2013-08-16 08:09:00,
2013-08-16 03:15:00,49.7,47.8,30.09,North,5,0.0,0.0,93,0.00,,,0.00,Wunderground v.1.15,2013-08-16 08:15:00,
2013-08-16 03:21:00,49.5,47.6,30.09,North,5,0.0,0.0,93,0.00,,,0.00,Wunderground v.1.15,2013-08-16 08:21:00,
2013-08-16 03:27:00,49.4,47.5,30.09,North,5,0.0,0.0,93,0.00,,,0.00,Wunderground v.1.15,2013-08-16 08:27:00,
2013-08-16 03:33:00,49.2,47.3,30.09,North,5,0.0,0.0,93,0.00,,,0.00,Wunderground v.1.15,2013-08-16 08:33:00,
2013-08-16 03:39:00,49.1,47.2,30.09,North,5,0.0,0.0,93,0.00,,,0.00,Wunderground v.1.15,2013-08-16 08:39:00,
2013-08-16 03:45:00,48.9,47.0,30.09,North,5,0.0,0.0,93,0.00,,,0.00,Wunderground v.1.15,2013-08-16 08:45:00,
2013-08-16 03:51:00,48.9,47.2,30.09,North,5,0.0,0.0,94,0.00,,,0.00,Wunderground v.1.15,2013-08-16 08:51:00,
2013-08-16 03:57:00,48.9,47.2,30.09,North,5,0.0,0.0,94,0.00,,,0.00,Wunderground v.1.15,2013-08-16 08:57:00,
2013-08-16 04:03:00,49.0,47.3,30.09,North,5,0.0,0.0,94,0.00,,,0.00,Wunderground v.1.15,2013-08-16 09:03:00,
2013-08-16 04:09:00,48.8,47.2,30.09,North,5,0.0,0.0,94,0.00,,,0.00,Wunderground v.1.15,2013-08-16 09:09:00,
2013-08-16 04:15:00,48.6,46.7,30.09,North,5,0.0,0.0,93,0.00,,,0.00,Wunderground v.1.15,2013-08-16 09:15:00,
2013-08-16 04:20:00,48.3,46.4,30.09,North,5,0.0,0.0,93,0.00,,,0.00,Wunderground v.1.15,2013-08-16 09:20:00,
2013-08-16 04:26:00,48.4,46.8,30.09,North,5,0.0,0.0,94,0.00,,,0.00,Wunderground v.1.15,2013-08-16 09:26:00,
2013-08-16 04:32:00,48.5,46.9,30.09,North,5,0.0,0.0,94,0.00,,,0.00,Wunderground v.1.15,2013-08-16 09:32:00,
2013-08-16 04:38:00,48.6,47.0,30.10,North,5,0.0,0.0,94,0.00,,,0.00,Wunderground v.1.15,2013-08-16 09:38:00,
2013-08-16 04:44:00,48.8,47.4,30.10,North,5,0.0,0.0,95,0.00,,,0.00,Wunderground v.1.15,2013-08-16 09:44:00,
2013-08-16 04:49:00,48.9,47.5,30.10,North,5,0.0,0.0,95,0.00,,,0.00,Wunderground v.1.15,2013-08-16 09:49:00,
2013-08-16 04:55:00,48.7,47.1,30.09,North,5,0.0,0.0,94,0.00,,,0.00,Wunderground v.1.15,2013-08-16 09:55:00,
2013-08-16 05:01:00,48.3,46.7,30.10,North,5,0.0,0.0,94,0.00,,,0.00,Wunderground v.1.15,2013-08-16 10:01:00,
2013-08-16 05:07:00,48.0,46.4,30.10,North,5,0.0,0.0,94,0.00,,,0.00,Wunderground v.1.15,2013-08-16 10:07:00,
2013-08-16 05:13:00,47.9,46.3,30.10,North,5,0.0,0.0,94,0.00,,,0.00,Wunderground v.1.15,2013-08-16 10:13:00,
2013-08-16 05:18:00,47.7,46.1,30.10,North,5,0.0,0.0,94,0.00,,,0.00,Wunderground v.1.15,2013-08-16 10:18:00,
2013-08-16 05:24:00,47.4,45.8,30.10,North,5,0.0,0.0,94,0.00,,,0.00,Wunderground v.1.15,2013-08-16 10:24:00,
2013-08-16 05:30:00,47.2,45.6,30.10,North,5,0.0,0.0,94,0.00,,,0.00,Wunderground v.1.15,2013-08-16 10:30:00,
2013-08-16 05:36:00,47.1,45.5,30.10,North,5,0.0,0.0,94,0.00,,,0.00,Wunderground v.1.15,2013-08-16 10:36:00,
2013-08-16 05:41:00,47.0,45.4,30.10,North,5,0.0,0.0,94,0.00,,,0.00,Wunderground v.1.15,2013-08-16 10:41:00,
2013-08-16 05:47:00,46.8,45.2,30.10,North,5,0.0,0.0,94,0.00,,,0.00,Wunderground v.1.15,2013-08-16 10:47:00,
2013-08-16 05:53:00,46.6,45.0,30.10,North,5,0.0,0.0,94,0.00,,,0.00,Wunderground v.1.15,2013-08-16 10:53:00,
2013-08-16 05:58:00,46.6,45.0,30.10,North,5,0.0,0.0,94,0.00,,,0.00,Wunderground v.1.15,2013-08-16 10:58:00,
2013-08-16 06:03:00,46.5,44.9,30.10,North,5,0.0,0.0,94,0.00,,,0.00,Wunderground v.1.15,2013-08-16 11:03:00,
2013-08-16 06:09:00,46.5,44.9,30.10,North,5,0.0,0.0,94,0.00,,,0.00,Wunderground v.1.15,2013-08-16 11:09:00,
2013-08-16 06:14:00,46.3,44.7,30.11,North,5,0.0,0.0,94,0.00,,,0.00,Wunderground v.1.15,2013-08-16 11:14:00,
2013-08-16 06:20:00,46.2,44.6,30.11,North,5,0.0,0.0,94,0.00,,,0.00,Wunderground v.1.15,2013-08-16 11:20:00,
2013-08-16 06:26:00,46.3,44.9,30.11,North,5,0.0,0.0,95,0.00,,,0.00,Wunderground v.1.15,2013-08-16 11:26:00,
2013-08-16 06:32:00,46.4,45.0,30.11,North,5,0.0,0.0,95,0.00,,,0.00,Wunderground v.1.15,2013-08-16 11:32:00,
2013-08-16 06:37:00,46.5,45.1,30.11,North,5,0.0,0.0,95,0.00,,,0.00,Wunderground v.1.15,2013-08-16 11:37:00,
2013-08-16 06:43:00,46.7,45.3,30.11,North,5,0.0,0.0,95,0.00,,,0.00,Wunderground v.1.15,2013-08-16 11:43:00,
2013-08-16 06:49:00,47.0,45.6,30.11,North,5,0.0,0.0,95,0.00,,,0.00,Wunderground v.1.15,2013-08-16 11:49:00,
2013-08-16 06:55:00,47.3,45.9,30.12,North,5,0.0,0.0,95,0.00,,,0.00,Wunderground v.1.15,2013-08-16 11:55:00,
2013-08-16 07:01:00,47.5,46.1,30.12,North,5,0.0,0.0,95,0.00,,,0.00,Wunderground v.1.15,2013-08-16 12:01:00,
2013-08-16 07:07:00,47.7,46.3,30.12,North,5,0.0,0.0,95,0.00,,,0.00,Wunderground v.1.15,2013-08-16 12:07:00,
2013-08-16 07:12:00,47.8,46.4,30.12,North,5,0.0,0.0,95,0.00,,,0.00,Wunderground v.1.15,2013-08-16 12:12:00,
2013-08-16 07:18:00,48.1,46.7,30.12,North,5,0.0,0.0,95,0.00,,,0.00,Wunderground v.1.15,2013-08-16 12:18:00,
2013-08-16 07:24:00,48.7,47.6,30.13,North,5,0.0,0.0,96,0.00,,,0.00,Wunderground v.1.15,2013-08-16 12:24:00,
2013-08-16 07:29:00,49.2,48.1,30.13,North,5,0.0,0.0,96,0.00,,,0.00,Wunderground v.1.15,2013-08-16 12:29:00,
2013-08-16 07:35:00,50.0,48.9,30.13,North,5,0.0,0.0,96,0.00,,,0.00,Wunderground v.1.15,2013-08-16 12:35:00,
2013-08-16 07:40:00,50.4,49.3,30.13,North,5,0.0,0.0,96,0.00,,,0.00,Wunderground v.1.15,2013-08-16 12:40:00,
2013-08-16 07:46:00,51.6,50.5,30.13,North,5,0.0,0.0,96,0.00,,,0.00,Wunderground v.1.15,2013-08-16 12:46:00,
2013-08-16 07:52:00,52.8,51.7,30.13,WNW,302,0.0,0.0,96,0.00,,,0.00,Wunderground v.1.15,2013-08-16 12:52:00,
2013-08-16 07:58:00,53.7,52.6,30.14,SW,234,0.0,0.0,96,0.00,,,0.00,Wunderground v.1.15,2013-08-16 12:58:00,
2013-08-16 08:03:00,54.6,53.5,30.14,SW,234,0.0,0.0,96,0.00,,,0.00,Wunderground v.1.15,2013-08-16 13:03:00,
2013-08-16 08:09:00,55.7,54.6,30.14,SW,234,0.0,0.0,96,0.00,,,0.00,Wunderground v.1.15,2013-08-16 13:09:00,
2013-08-16 08:15:00,56.9,55.8,30.14,SW,234,0.0,0.0,96,0.00,,,0.00,Wunderground v.1.15,2013-08-16 13:15:00,
2013-08-16 08:20:00,58.0,55.7,30.14,SW,234,0.0,0.0,92,0.00,,,0.00,Wunderground v.1.15,2013-08-16 13:20:00,
2013-08-16 08:26:00,59.1,56.2,30.13,SW,234,0.0,0.0,90,0.00,,,0.00,Wunderground v.1.15,2013-08-16 13:26:00,
2013-08-16 08:32:00,60.5,57.2,30.13,SW,227,0.0,0.0,89,0.00,,,0.00,Wunderground v.1.15,2013-08-16 13:32:00,
2013-08-16 08:37:00,61.6,57.4,30.13,SW,227,0.0,0.0,86,0.00,,,0.00,Wunderground v.1.15,2013-08-16 13:37:00,
2013-08-16 08:43:00,62.9,58.0,30.13,SW,227,0.0,0.0,84,0.00,,,0.00,Wunderground v.1.15,2013-08-16 13:43:00,
2013-08-16 08:49:00,64.2,58.9,30.13,SW,227,0.0,0.0,83,0.00,,,0.00,Wunderground v.1.15,2013-08-16 13:49:00,
2013-08-16 08:55:00,65.2,59.2,30.13,SW,227,0.0,0.0,81,0.00,,,0.00,Wunderground v.1.15,2013-08-16 13:55:00,
2013-08-16 09:00:00,65.8,58.7,30.13,SW,227,0.0,0.0,78,0.00,,,0.00,Wunderground v.1.15,2013-08-16 14:00:00,
2013-08-16 09:05:00,66.5,60.5,30.13,SW,221,0.0,0.0,81,0.00,,,0.00,Wunderground v.1.15,2013-08-16 14:05:00,
2013-08-16 09:11:00,66.8,59.7,30.13,SW,221,0.0,0.0,78,0.00,,,0.00,Wunderground v.1.15,2013-08-16 14:11:00,
2013-08-16 09:16:00,67.3,60.2,30.13,SW,221,0.0,0.0,78,0.00,,,0.00,Wunderground v.1.15,2013-08-16 14:16:00,
2013-08-16 09:22:00,68.1,60.6,30.13,SW,221,0.0,0.0,77,0.00,,,0.00,Wunderground v.1.15,2013-08-16 14:22:00,
2013-08-16 09:28:00,68.8,60.2,30.13,SW,221,0.0,0.0,74,0.00,,,0.00,Wunderground v.1.15,2013-08-16 14:28:00,
2013-08-16 09:33:00,69.2,60.2,30.13,SW,228,0.0,0.0,73,0.00,,,0.00,Wunderground v.1.15,2013-08-16 14:33:00,
2013-08-16 09:39:00,69.9,60.1,30.13,SSW,208,0.0,0.0,71,0.00,,,0.00,Wunderground v.1.15,2013-08-16 14:39:00,
2013-08-16 09:44:00,70.6,61.5,30.13,SSW,208,0.0,0.0,73,0.00,,,0.00,Wunderground v.1.15,2013-08-16 14:44:00,
2013-08-16 09:50:00,71.2,60.5,30.13,SSW,208,0.0,0.0,69,0.00,,,0.00,Wunderground v.1.15,2013-08-16 14:50:00,
2013-08-16 09:55:00,71.8,61.5,30.13,SSW,208,0.0,0.0,70,0.00,,,0.00,Wunderground v.1.15,2013-08-16 14:55:00,
2013-08-16 10:01:00,72.2,60.6,30.13,SW,220,0.0,0.0,67,0.00,,,0.00,Wunderground v.1.15,2013-08-16 15:01:00,
2013-08-16 10:07:00,72.3,60.7,30.13,West,269,0.0,0.0,67,0.00,,,0.00,Wunderground v.1.15,2013-08-16 15:07:00,
2013-08-16 10:12:00,72.4,60.8,30.13,SW,229,0.0,0.0,67,0.00,,,0.00,Wunderground v.1.15,2013-08-16 15:12:00,
2013-08-16 10:18:00,72.5,59.6,30.13,West,271,0.0,0.0,64,0.00,,,0.00,Wunderground v.1.15,2013-08-16 15:18:00,
2013-08-16 10:23:00,72.7,60.3,30.13,West,273,0.0,0.0,65,0.00,,,0.00,Wunderground v.1.15,2013-08-16 15:23:00,
2013-08-16 10:29:00,73.0,60.1,30.13,NNW,329,0.0,0.0,64,0.00,,,0.00,Wunderground v.1.15,2013-08-16 15:29:00,
2013-08-16 10:34:00,73.5,59.7,30.13,West,261,0.0,0.0,62,0.00,,,0.00,Wunderground v.1.15,2013-08-16 15:34:00,
2013-08-16 10:40:00,73.8,60.9,30.13,West,279,0.0,0.0,64,0.00,,,0.00,Wunderground v.1.15,2013-08-16 15:40:00,
2013-08-16 10:45:00,73.9,60.1,30.13,WSW,242,0.0,0.0,62,0.00,,,0.00,Wunderground v.1.15,2013-08-16 15:45:00,
2013-08-16 10:51:00,73.7,59.4,30.13,WNW,288,0.0,0.0,61,0.00,,,0.00,Wunderground v.1.15,2013-08-16 15:51:00,
2013-08-16 10:56:00,74.0,59.2,30.13,WNW,289,0.0,0.0,60,0.00,,,0.00,Wunderground v.1.15,2013-08-16 15:56:00,
2013-08-16 11:02:00,74.3,59.0,30.13,West,259,0.0,0.0,59,0.00,,,0.00,Wunderground v.1.15,2013-08-16 16:02:00,
2013-08-16 11:08:00,74.6,59.3,30.13,WSW,248,0.0,0.0,59,0.00,,,0.00,Wunderground v.1.15,2013-08-16 16:08:00,
2013-08-16 11:13:00,74.8,58.5,30.13,NNW,331,0.0,0.0,57,0.00,,,0.00,Wunderground v.1.15,2013-08-16 16:13:00,
2013-08-16 11:19:00,74.9,58.6,30.13,WNW,289,0.0,0.0,57,0.00,,,0.00,Wunderground v.1.15,2013-08-16 16:19:00,
2013-08-16 11:24:00,74.4,58.2,30.13,WSW,252,0.0,0.0,57,0.00,,,0.00,Wunderground v.1.15,2013-08-16 16:24:00,
2013-08-16 11:30:00,73.8,59.0,30.13,WSW,240,0.0,0.0,60,0.00,,,0.00,Wunderground v.1.15,2013-08-16 16:30:00,
2013-08-16 11:36:00,74.4,57.7,30.13,WSW,248,0.0,0.0,56,0.00,,,0.00,Wunderground v.1.15,2013-08-16 16:36:00,
2013-08-16 11:41:00,75.3,60.0,30.13,SSW,208,0.0,0.0,59,0.00,,,0.00,Wunderground v.1.15,2013-08-16 16:41:00,
2013-08-16 11:47:00,76.0,56.6,30.13,West,273,0.0,0.0,51,0.00,,,0.00,Wunderground v.1.15,2013-08-16 16:47:00,
2013-08-16 11:52:00,76.5,58.1,30.13,West,278,0.0,0.0,53,0.00,,,0.00,Wunderground v.1.15,2013-08-16 16:52:00,
2013-08-16 11:58:00,76.3,58.4,30.13,WSW,246,0.0,0.0,54,0.00,,,0.00,Wunderground v.1.15,2013-08-16 16:58:00,
2013-08-16 12:03:00,75.8,56.9,30.13,WSW,241,0.0,0.0,52,0.00,,,0.00,Wunderground v.1.15,2013-08-16 17:03:00,
2013-08-16 12:09:00,75.9,57.5,30.13,WSW,242,1.0,5.0,53,0.00,,,0.00,Wunderground v.1.15,2013-08-16 17:09:00,
2013-08-16 12:14:00,76.0,56.6,30.13,WNW,285,3.0,7.0,51,0.00,,,0.00,Wunderground v.1.15,2013-08-16 17:14:00,
2013-08-16 12:20:00,75.3,56.5,30.13,NW,319,5.0,7.0,52,0.00,,,0.00,Wunderground v.1.15,2013-08-16 17:20:00,
2013-08-16 12:26:00,75.1,56.8,30.13,WSW,255,3.0,6.0,53,0.00,,,0.00,Wunderground v.1.15,2013-08-16 17:26:00,
2013-08-16 12:31:00,74.7,56.4,30.12,WNW,290,5.0,8.0,53,0.00,,,0.00,Wunderground v.1.15,2013-08-16 17:31:00,
2013-08-16 12:37:00,75.5,56.6,30.12,SSW,209,6.0,7.0,52,0.00,,,0.00,Wunderground v.1.15,2013-08-16 17:37:00,
2013-08-16 12:43:00,76.4,55.8,30.12,SW,215,6.0,6.0,49,0.00,,,0.00,Wunderground v.1.15,2013-08-16 17:43:00,
2013-08-16 12:48:00,77.1,57.6,30.12,SW,221,5.0,6.0,51,0.00,,,0.00,Wunderground v.1.15,2013-08-16 17:48:00,
2013-08-16 12:54:00,77.3,57.2,30.12,SSW,194,4.0,6.0,50,0.00,,,0.00,Wunderground v.1.15,2013-08-16 17:54:00,
2013-08-16 13:00:00,77.3,56.6,30.11,SSW,213,4.0,6.0,49,0.00,,,0.00,Wunderground v.1.15,2013-08-16 18:00:00,
2013-08-16 13:05:00,77.2,57.7,30.11,SSW,205,4.0,4.0,51,0.00,,,0.00,Wunderground v.1.15,2013-08-16 18:05:00,
2013-08-16 13:11:00,76.5,57.0,30.11,WNW,284,4.0,6.0,51,0.00,,,0.00,Wunderground v.1.15,2013-08-16 18:11:00,
2013-08-16 13:17:00,77.0,56.4,30.11,West,260,5.0,7.0,49,0.00,,,0.00,Wunderground v.1.15,2013-08-16 18:17:00,
2013-08-16 13:22:00,77.5,55.7,30.11,SW,228,6.0,8.0,47,0.00,,,0.00,Wunderground v.1.15,2013-08-16 18:22:00,
2013-08-16 13:28:00,77.7,56.4,30.11,SE,125,4.0,5.0,48,0.00,,,0.00,Wunderground v.1.15,2013-08-16 18:28:00,
2013-08-16 13:34:00,78.1,56.8,30.11,WNW,296,3.0,6.0,48,0.00,,,0.00,Wunderground v.1.15,2013-08-16 18:34:00,
2013-08-16 13:39:00,77.8,56.0,30.11,West,267,3.0,6.0,47,0.00,,,0.00,Wunderground v.1.15,2013-08-16 18:39:00,
2013-08-16 13:45:00,78.2,55.7,30.11,NNW,329,4.0,4.0,46,0.00,,,0.00,Wunderground v.1.15,2013-08-16 18:45:00,
2013-08-16 13:51:00,78.4,56.5,30.11,WNW,292,3.0,7.0,47,0.00,,,0.00,Wunderground v.1.15,2013-08-16 18:51:00,
2013-08-16 13:57:00,78.1,56.8,30.11,West,269,5.0,5.0,48,0.00,,,0.00,Wunderground v.1.15,2013-08-16 18:57:00,
2013-08-16 14:02:00,78.5,56.6,30.11,West,272,6.0,10.0,47,0.00,,,0.00,Wunderground v.1.15,2013-08-16 19:02:00,
2013-08-16 14:08:00,78.4,55.9,30.11,West,267,7.0,9.0,46,0.00,,,0.00,Wunderground v.1.15,2013-08-16 19:08:00,
2013-08-16 14:14:00,78.5,56.0,30.11,SW,225,8.0,8.0,46,0.00,,,0.00,Wunderground v.1.15,2013-08-16 19:14:00,
2013-08-16 14:19:00,78.7,57.4,30.11,WNW,286,6.0,10.0,48,0.00,,,0.00,Wunderground v.1.15,2013-08-16 19:19:00,
2013-08-16 14:25:00,78.4,57.7,30.11,WNW,294,6.0,9.0,49,0.00,,,0.00,Wunderground v.1.15,2013-08-16 19:25:00,
2013-08-16 14:31:00,78.8,59.1,30.11,West,279,8.0,11.0,51,0.00,,,0.00,Wunderground v.1.15,2013-08-16 19:31:00,
2013-08-16 14:37:00,78.5,57.7,30.11,West,261,8.0,10.0,49,0.00,,,0.00,Wunderground v.1.15,2013-08-16 19:37:00,
2013-08-16 14:42:00,78.3,57.0,30.11,West,269,8.0,10.0,48,0.00,,,0.00,Wunderground v.1.15,2013-08-16 19:42:00,
2013-08-16 14:48:00,78.5,57.2,30.11,WSW,243,7.0,9.0,48,0.00,,,0.00,Wunderground v.1.15,2013-08-16 19:48:00,
2013-08-16 14:53:00,78.6,57.8,30.11,SW,228,6.0,7.0,49,0.00,,,0.00,Wunderground v.1.15,2013-08-16 19:53:00,
2013-08-16 14:59:00,78.9,57.5,30.10,WSW,241,6.0,7.0,48,0.00,,,0.00,Wunderground v.1.15,2013-08-16 19:59:00,
2013-08-16 15:05:00,79.2,56.6,30.10,West,275,4.0,5.0,46,0.00,,,0.00,Wunderground v.1.15,2013-08-16 20:05:00,
2013-08-16 15:10:00,78.8,56.3,30.10,WNW,292,3.0,5.0,46,0.00,,,0.00,Wunderground v.1.15,2013-08-16 20:10:00,
2013-08-16 15:16:00,78.4,57.7,30.10,SW,233,4.0,4.0,49,0.00,,,0.00,Wunderground v.1.15,2013-08-16 20:16:00,
2013-08-16 15:22:00,78.2,56.3,30.10,West,273,4.0,6.0,47,0.00,,,0.00,Wunderground v.1.15,2013-08-16 20:22:00,
2013-08-16 15:27:00,77.3,58.3,30.10,WNW,294,5.0,6.0,52,0.00,,,0.00,Wunderground v.1.15,2013-08-16 20:27:00,
2013-08-16 15:33:00,76.2,58.3,30.10,NNE,22,5.0,5.0,54,0.00,,,0.00,Wunderground v.1.15,2013-08-16 20:33:00,
2013-08-16 15:39:00,76.2,58.3,30.10,NW,319,4.0,5.0,54,0.00,,,0.00,Wunderground v.1.15,2013-08-16 20:39:00,
2013-08-16 15:45:00,77.1,58.1,30.10,WNW,298,4.0,6.0,52,0.00,,,0.00,Wunderground v.1.15,2013-08-16 20:45:00,
2013-08-16 15:50:00,77.9,58.3,30.10,West,279,4.0,9.0,51,0.00,,,0.00,Wunderground v.1.15,2013-08-16 20:50:00,
2013-08-16 15:56:00,78.4,57.1,30.10,West,274,6.0,9.0,48,0.00,,,0.00,Wunderground v.1.15,2013-08-16 20:56:00,
2013-08-16 16:01:00,78.0,56.7,30.10,WNW,286,7.0,9.0,48,0.00,,,0.00,Wunderground v.1.15,2013-08-16 21:01:00,
2013-08-16 16:07:00,78.0,56.7,30.10,West,264,7.0,9.0,48,0.00,,,0.00,Wunderground v.1.15,2013-08-16 21:07:00,
2013-08-16 16:13:00,78.4,56.5,30.10,West,281,8.0,8.0,47,0.00,,,0.00,Wunderground v.1.15,2013-08-16 21:13:00,
2013-08-16 16:18:00,78.6,56.7,30.10,WNW,303,7.0,8.0,47,0.00,,,0.00,Wunderground v.1.15,2013-08-16 21:18:00,
2013-08-16 16:24:00,78.9,55.8,30.10,WNW,296,4.0,6.0,45,0.00,,,0.00,Wunderground v.1.15,2013-08-16 21:24:00,
2013-08-16 16:30:00,79.0,57.6,30.10,NNW,336,5.0,8.0,48,0.00,,,0.00,Wunderground v.1.15,2013-08-16 21:30:00,
2013-08-16 16:35:00,79.1,57.1,30.10,NNW,334,5.0,6.0,47,0.00,,,0.00,Wunderground v.1.15,2013-08-16 21:35:00,
2013-08-16 16:41:00,79.2,57.2,30.10,West,261,4.0,6.0,47,0.00,,,0.00,Wunderground v.1.15,2013-08-16 21:41:00,
2013-08-16 16:47:00,79.3,56.7,30.10,WNW,301,5.0,9.0,46,0.00,,,0.00,Wunderground v.1.15,2013-08-16 21:47:00,
2013-08-16 16:53:00,79.1,57.1,30.10,West,269,6.0,6.0,47,0.00,,,0.00,Wunderground v.1.15,2013-08-16 21:53:00,
2013-08-16 16:58:00,79.0,55.8,30.10,WNW,284,5.0,6.0,45,0.00,,,0.00,Wunderground v.1.15,2013-08-16 21:58:00,
2013-08-16 17:03:00,79.1,55.9,30.10,WSW,252,4.0,4.0,45,0.00,,,0.00,Wunderground v.1.15,2013-08-16 22:03:00,
2013-08-16 17:09:00,79.6,56.4,30.10,West,275,2.0,4.0,45,0.00,,,0.00,Wunderground v.1.15,2013-08-16 22:09:00,
2013-08-16 17:15:00,79.7,58.3,30.10,South,170,2.0,2.0,48,0.00,,,0.00,Wunderground v.1.15,2013-08-16 22:15:00,
2013-08-16 17:21:00,79.2,57.2,30.10,South,188,2.0,4.0,47,0.00,,,0.00,Wunderground v.1.15,2013-08-16 22:21:00,
2013-08-16 17:26:00,79.1,57.7,30.10,WNW,296,2.0,4.0,48,0.00,,,0.00,Wunderground v.1.15,2013-08-16 22:26:00,
2013-08-16 17:32:00,79.2,56.6,30.10,West,273,3.0,5.0,46,0.00,,,0.00,Wunderground v.1.15,2013-08-16 22:32:00,
2013-08-16 17:37:00,79.1,56.5,30.10,NW,305,3.0,4.0,46,0.00,,,0.00,Wunderground v.1.15,2013-08-16 22:37:00,
2013-08-16 17:43:00,79.2,56.6,30.10,SW,232,4.0,4.0,46,0.00,,,0.00,Wunderground v.1.15,2013-08-16 22:43:00,
2013-08-16 17:48:00,79.2,57.2,30.10,WSW,243,4.0,5.0,47,0.00,,,0.00,Wunderground v.1.15,2013-08-16 22:48:00,
2013-08-16 17:54:00,79.2,56.6,30.10,WNW,291,4.0,5.0,46,0.00,,,0.00,Wunderground v.1.15,2013-08-16 22:54:00,
2013-08-16 18:00:00,79.1,56.5,30.10,WSW,249,4.0,5.0,46,0.00,,,0.00,Wunderground v.1.15,2013-08-16 23:00:00,
2013-08-16 18:05:00,79.0,56.5,30.10,WNW,283,4.0,6.0,46,0.00,,,0.00,Wunderground v.1.15,2013-08-16 23:05:00,
2013-08-16 18:11:00,78.9,58.1,30.10,SW,220,3.0,6.0,49,0.00,,,0.00,Wunderground v.1.15,2013-08-16 23:11:00,
2013-08-16 18:17:00,78.8,56.3,30.10,WSW,252,2.0,4.0,46,0.00,,,0.00,Wunderground v.1.15,2013-08-16 23:17:00,
2013-08-16 18:22:00,78.8,58.0,30.10,SW,236,3.0,4.0,49,0.00,,,0.00,Wunderground v.1.15,2013-08-16 23:22:00,
2013-08-16 18:28:00,78.5,58.9,30.10,WSW,244,3.0,4.0,51,0.00,,,0.00,Wunderground v.1.15,2013-08-16 23:28:00,
2013-08-16 18:34:00,78.6,57.3,30.10,WNW,284,2.0,3.0,48,0.00,,,0.00,Wunderground v.1.15,2013-08-16 23:34:00,
2013-08-16 18:39:00,78.5,57.7,30.10,WNW,284,2.0,3.0,49,0.00,,,0.00,Wunderground v.1.15,2013-08-16 23:39:00,
2013-08-16 18:45:00,78.5,57.7,30.10,WNW,287,2.0,2.0,49,0.00,,,0.00,Wunderground v.1.15,2013-08-16 23:45:00,
2013-08-16 18:50:00,78.2,58.0,30.10,WNW,287,2.0,2.0,50,0.00,,,0.00,Wunderground v.1.15,2013-08-16 23:50:00,
2013-08-16 18:56:00,77.7,58.1,30.10,West,261,2.0,4.0,51,0.00,,,0.00,Wunderground v.1.15,2013-08-16 23:56:00,
2013-08-16 19:02:00,76.6,59.2,30.10,West,281,3.0,4.0,55,0.00,,,0.00,Wunderground v.1.15,2013-08-17 00:02:00,
2013-08-16 19:08:00,75.4,58.6,30.10,WNW,294,3.0,4.0,56,0.00,,,0.00,Wunderground v.1.15,2013-08-17 00:08:00,
2013-08-16 19:13:00,74.4,58.7,30.10,WNW,285,2.0,2.0,58,0.00,,,0.00,Wunderground v.1.15,2013-08-17 00:13:00,
2013-08-16 19:19:00,73.5,58.8,30.10,SW,225,2.0,3.0,60,0.00,,,0.00,Wunderground v.1.15,2013-08-17 00:19:00,
2013-08-16 19:24:00,72.8,59.0,30.10,WSW,238,2.0,2.0,62,0.00,,,0.00,Wunderground v.1.15,2013-08-17 00:24:00,
2013-08-16 19:30:00,71.9,58.6,30.10,SW,233,2.0,3.0,63,0.00,,,0.00,Wunderground v.1.15,2013-08-17 00:30:00,
2013-08-16 19:36:00,71.3,58.5,30.10,WSW,240,2.0,3.0,64,0.00,,,0.00,Wunderground v.1.15,2013-08-17 00:36:00,
2013-08-16 19:42:00,70.8,58.9,30.10,WSW,240,1.0,3.0,66,0.00,,,0.00,Wunderground v.1.15,2013-08-17 00:42:00,
2013-08-16 19:47:00,70.3,58.8,30.10,WSW,240,1.0,1.0,67,0.00,,,0.00,Wunderground v.1.15,2013-08-17 00:47:00,
2013-08-16 19:53:00,69.7,58.7,30.10,WSW,240,1.0,1.0,68,0.00,,,0.00,Wunderground v.1.15,2013-08-17 00:53:00,
2013-08-16 19:58:00,69.2,58.6,30.11,WSW,240,1.0,2.0,69,0.00,,,0.00,Wunderground v.1.15,2013-08-17 00:58:00,
2013-08-16 20:03:00,68.7,58.1,30.11,WSW,240,1.0,1.0,69,0.00,,,0.00,Wunderground v.1.15,2013-08-17 01:03:00,
2013-08-16 20:09:00,68.2,58.0,30.11,WSW,240,0.0,1.0,70,0.00,,,0.00,Wunderground v.1.15,2013-08-17 01:09:00,
2013-08-16 20:14:00,67.9,57.8,30.11,SW,229,1.0,1.0,70,0.00,,,0.00,Wunderground v.1.15,2013-08-17 01:14:00,
2013-08-16 20:20:00,67.6,58.6,30.11,SW,229,1.0,1.0,73,0.00,,,0.00,Wunderground v.1.15,2013-08-17 01:20:00,
2013-08-16 20:25:00,67.1,58.5,30.11,SW,229,0.0,0.0,74,0.00,,,0.00,Wunderground v.1.15,2013-08-17 01:25:00,
2013-08-16 20:31:00,66.7,58.9,30.11,SW,229,0.0,0.0,76,0.00,,,0.00,Wunderground v.1.15,2013-08-17 01:31:00,
2013-08-16 20:37:00,66.3,59.2,30.11,SW,229,0.0,0.0,78,0.00,,,0.00,Wunderground v.1.15,2013-08-17 01:37:00,
2013-08-16 20:42:00,65.9,59.2,30.11,SW,229,0.0,0.0,79,0.00,,,0.00,Wunderground v.1.15,2013-08-17 01:42:00,
2013-08-16 20:48:00,65.4,58.7,30.11,SW,229,0.0,0.0,79,0.00,,,0.00,Wunderground v.1.15,2013-08-17 01:48:00,
2013-08-16 20:54:00,65.1,58.8,30.11,SW,229,0.0,0.0,80,0.00,,,0.00,Wunderground v.1.15,2013-08-17 01:54:00,
2013-08-16 20:59:00,64.9,58.6,30.12,SW,229,0.0,0.0,80,0.00,,,0.00,Wunderground v.1.15,2013-08-17 01:59:00,
2013-08-16 21:05:00,64.4,58.1,30.12,SW,229,0.0,0.0,80,0.00,,,0.00,Wunderground v.1.15,2013-08-17 02:05:00,
2013-08-16 21:11:00,64.2,58.2,30.12,SW,229,0.0,1.0,81,0.00,,,0.00,Wunderground v.1.15,2013-08-17 02:11:00,
2013-08-16 21:17:00,64.0,58.1,30.12,SW,229,0.0,0.0,81,0.00,,,0.00,Wunderground v.1.15,2013-08-17 02:17:00,
2013-08-16 21:22:00,63.8,57.9,30.12,SW,229,0.0,0.0,81,0.00,,,0.00,Wunderground v.1.15,2013-08-17 02:22:00,
2013-08-16 21:28:00,63.6,58.3,30.12,SW,229,0.0,0.0,83,0.00,,,0.00,Wunderground v.1.15,2013-08-17 02:28:00,
2013-08-16 21:33:00,63.6,58.0,30.12,SW,229,0.0,0.0,82,0.00,,,0.00,Wunderground v.1.15,2013-08-17 02:33:00,
2013-08-16 21:39:00,63.7,58.1,30.12,SW,229,1.0,2.0,82,0.00,,,0.00,Wunderground v.1.15,2013-08-17 02:39:00,
2013-08-16 21:45:00,63.8,58.5,30.12,SW,229,1.0,1.0,83,0.00,,,0.00,Wunderground v.1.15,2013-08-17 02:45:00,
2013-08-16 21:50:00,63.7,58.1,30.12,SW,229,0.0,1.0,82,0.00,,,0.00,Wunderground v.1.15,2013-08-17 02:50:00,
2013-08-16 21:56:00,63.6,58.0,30.12,SW,229,1.0,3.0,82,0.00,,,0.00,Wunderground v.1.15,2013-08-17 02:56:00,
2013-08-16 22:02:00,63.7,58.4,30.12,WSW,238,3.0,4.0,83,0.00,,,0.00,Wunderground v.1.15,2013-08-17 03:02:00,
2013-08-16 22:07:00,63.6,58.0,30.13,WSW,238,3.0,3.0,82,0.00,,,0.00,Wunderground v.1.15,2013-08-17 03:07:00,
2013-08-16 22:13:00,63.6,58.0,30.13,WSW,243,3.0,3.0,82,0.00,,,0.00,Wunderground v.1.15,2013-08-17 03:13:00,
2013-08-16 22:19:00,63.6,58.0,30.13,WSW,242,3.0,3.0,82,0.00,,,0.00,Wunderground v.1.15,2013-08-17 03:19:00,
2013-08-16 22:25:00,62.5,57.6,30.13,WSW,243,1.0,2.0,84,0.00,,,0.00,Wunderground v.1.15,2013-08-17 03:25:00,
2013-08-16 22:30:00,61.9,57.7,30.13,WSW,243,0.0,2.0,86,0.00,,,0.00,Wunderground v.1.15,2013-08-17 03:30:00,
2013-08-16 22:36:00,61.4,57.2,30.13,WSW,243,0.0,0.0,86,0.00,,,0.00,Wunderground v.1.15,2013-08-17 03:36:00,
2013-08-16 22:42:00,61.0,57.1,30.13,WSW,243,0.0,0.0,87,0.00,,,0.00,Wunderground v.1.15,2013-08-17 03:42:00,
2013-08-16 22:47:00,60.8,57.2,30.13,WSW,243,0.0,0.0,88,0.00,,,0.00,Wunderground v.1.15,2013-08-17 03:47:00,
2013-08-16 22:53:00,60.8,57.2,30.13,WSW,243,0.0,2.0,88,0.00,,,0.00,Wunderground v.1.15,2013-08-17 03:53:00,
2013-08-16 22:58:00,60.8,57.2,30.13,WSW,243,1.0,2.0,88,0.00,,,0.00,Wunderground v.1.15,2013-08-17 03:58:00,
2013-08-16 23:01:00,60.8,56.9,30.13,WSW,243,1.0,2.0,87,0.00,,,0.00,Wunderground v.1.15,2013-08-17 04:01:00,
2013-08-16 23:02:00,60.8,56.9,30.13,WSW,243,1.0,3.0,87,0.00,,,0.00,Wunderground v.1.15,2013-08-17 04:02:00,
2013-08-16 23:04:00,60.9,57.0,30.13,WSW,245,2.0,3.0,87,0.00,,,0.00,Wunderground v.1.15,2013-08-17 04:04:00,
2013-08-16 23:06:00,61.1,56.9,30.13,WSW,245,2.0,3.0,86,0.00,,,0.00,Wunderground v.1.15,2013-08-17 04:06:00,
2013-08-16 23:12:00,61.4,57.2,30.13,WSW,252,2.0,3.0,86,0.00,,,0.00,Wunderground v.1.15,2013-08-17 04:12:00,
2013-08-16 23:16:00,61.3,56.8,30.13,WSW,252,2.0,2.0,85,0.00,,,0.00,Wunderground v.1.15,2013-08-17 04:16:00,
2013-08-16 23:22:00,60.8,56.6,30.13,WSW,252,1.0,2.0,86,0.00,,,0.00,Wunderground v.1.15,2013-08-17 04:22:00,
2013-08-16 23:28:00,60.1,56.5,30.13,WSW,252,0.0,1.0,88,0.00,,,0.00,Wunderground v.1.15,2013-08-17 04:28:00,
2013-08-16 23:33:00,59.6,56.0,30.13,WSW,252,0.0,0.0,88,0.00,,,0.00,Wunderground v.1.15,2013-08-17 04:33:00,
2013-08-16 23:39:00,59.3,55.7,30.13,WSW,252,0.0,1.0,88,0.00,,,0.00,Wunderground v.1.15,2013-08-17 04:39:00,
2013-08-16 23:45:00,59.1,55.9,30.14,WSW,252,0.0,1.0,89,0.00,,,0.00,Wunderground v.1.15,2013-08-17 04:45:00,
2013-08-16 23:50:00,58.9,55.4,30.14,WSW,252,1.0,1.0,88,0.00,,,0.00,Wunderground v.1.15,2013-08-17 04:50:00,
2013-08-16 23:56:00,58.4,54.9,30.14,WSW,252,0.0,1.0,88,0.00,,,0.00,Wunderground v.1.15,2013-08-17 04:56:00,